sensor_id;sensor_type;location;lat;lon;timestamp;temperature;humidity
11284;DHT22;5698;47.332;11.180;2023-05-20T00:02:09;8.20;99.90
11284;DHT22;5698;47.332;11.180;2023-05-20T00:04:36;8.20;99.90
11284;DHT22;5698;47.332;11.180;2023-05-20T00:07:06;8.30;99.90
11284;DHT22;5698;47.332;11.180;2023-05-20T00:09:33;8.30;99.90
11284;DHT22;5698;47.332;11.180;2023-05-20T00:12:00;8.30;99.90
11284;DHT22;5698;47.332;11.180;2023-05-20T00:14:28;8.30;99.90
11284;DHT22;5698;47.332;11.180;2023-05-20T00:16:55;8.30;99.90
11284;DHT22;5698;47.332;11.180;2023-05-20T00:19:22;8.40;99.90
11284;DHT22;5698;47.332;11.180;2023-05-20T00:21:49;8.40;99.90
11284;DHT22;5698;47.332;11.180;2023-05-20T00:24:17;8.50;99.90
11284;DHT22;5698;47.332;11.180;2023-05-20T00:26:44;8.40;99.90
11284;DHT22;5698;47.332;11.180;2023-05-20T00:29:11;8.50;99.90
11284;DHT22;5698;47.332;11.180;2023-05-20T00:31:38;8.50;99.90
11284;DHT22;5698;47.332;11.180;2023-05-20T00:34:05;8.50;99.90
11284;DHT22;5698;47.332;11.180;2023-05-20T00:36:32;8.50;99.90
11284;DHT22;5698;47.332;11.180;2023-05-20T00:38:59;8.40;99.90
11284;DHT22;5698;47.332;11.180;2023-05-20T00:41:27;8.40;99.90
11284;DHT22;5698;47.332;11.180;2023-05-20T00:43:54;8.30;99.90
11284;DHT22;5698;47.332;11.180;2023-05-20T00:46:21;8.40;99.90
11284;DHT22;5698;47.332;11.180;2023-05-20T00:48:50;8.30;99.90
11284;DHT22;5698;47.332;11.180;2023-05-20T00:51:17;8.30;99.90
11284;DHT22;5698;47.332;11.180;2023-05-20T00:53:44;8.40;99.90
11284;DHT22;5698;47.332;11.180;2023-05-20T00:56:12;8.30;99.90
11284;DHT22;5698;47.332;11.180;2023-05-20T00:58:40;8.20;99.90
11284;DHT22;5698;47.332;11.180;2023-05-20T01:01:07;8.20;99.90
11284;DHT22;5698;47.332;11.180;2023-05-20T01:03:34;8.20;99.90
11284;DHT22;5698;47.332;11.180;2023-05-20T01:06:01;8.20;99.90
11284;DHT22;5698;47.332;11.180;2023-05-20T01:08:29;8.20;99.90
11284;DHT22;5698;47.332;11.180;2023-05-20T01:11:02;8.10;99.90
11284;DHT22;5698;47.332;11.180;2023-05-20T01:13:33;8.10;99.90
11284;DHT22;5698;47.332;11.180;2023-05-20T01:16:04;8.10;99.90
11284;DHT22;5698;47.332;11.180;2023-05-20T01:18:33;8.00;99.90
11284;DHT22;5698;47.332;11.180;2023-05-20T01:21:01;7.90;99.90
11284;DHT22;5698;47.332;11.180;2023-05-20T01:23:37;7.90;99.90
11284;DHT22;5698;47.332;11.180;2023-05-20T01:26:05;7.90;99.90
11284;DHT22;5698;47.332;11.180;2023-05-20T01:28:33;7.80;99.90
11284;DHT22;5698;47.332;11.180;2023-05-20T01:31:02;7.70;99.90
11284;DHT22;5698;47.332;11.180;2023-05-20T01:33:31;7.70;99.90
11284;DHT22;5698;47.332;11.180;2023-05-20T01:36:00;7.70;99.90
11284;DHT22;5698;47.332;11.180;2023-05-20T01:38:27;7.60;99.90
11284;DHT22;5698;47.332;11.180;2023-05-20T01:40:56;7.60;99.90
11284;DHT22;5698;47.332;11.180;2023-05-20T01:43:25;7.60;99.90
11284;DHT22;5698;47.332;11.180;2023-05-20T01:45:52;7.70;99.90
11284;DHT22;5698;47.332;11.180;2023-05-20T01:48:19;7.60;99.90
11284;DHT22;5698;47.332;11.180;2023-05-20T01:50:46;7.60;99.90
11284;DHT22;5698;47.332;11.180;2023-05-20T01:53:13;7.60;99.90
11284;DHT22;5698;47.332;11.180;2023-05-20T01:55:40;7.50;99.90
11284;DHT22;5698;47.332;11.180;2023-05-20T01:58:09;7.50;99.90
11284;DHT22;5698;47.332;11.180;2023-05-20T02:00:36;7.50;99.90
11284;DHT22;5698;47.332;11.180;2023-05-20T02:03:03;7.50;99.90
11284;DHT22;5698;47.332;11.180;2023-05-20T02:05:30;7.40;99.90
11284;DHT22;5698;47.332;11.180;2023-05-20T02:07:57;7.40;99.90
11284;DHT22;5698;47.332;11.180;2023-05-20T02:10:24;7.40;99.90
11284;DHT22;5698;47.332;11.180;2023-05-20T02:12:50;7.40;99.90
11284;DHT22;5698;47.332;11.180;2023-05-20T02:15:19;7.40;99.90
11284;DHT22;5698;47.332;11.180;2023-05-20T02:17:46;7.50;99.90
11284;DHT22;5698;47.332;11.180;2023-05-20T02:20:14;7.50;99.90
11284;DHT22;5698;47.332;11.180;2023-05-20T02:22:41;7.40;99.90
11284;DHT22;5698;47.332;11.180;2023-05-20T02:25:08;7.40;99.90
11284;DHT22;5698;47.332;11.180;2023-05-20T02:27:35;7.40;99.90
11284;DHT22;5698;47.332;11.180;2023-05-20T02:30:03;7.40;99.90
11284;DHT22;5698;47.332;11.180;2023-05-20T02:32:32;7.40;99.90
11284;DHT22;5698;47.332;11.180;2023-05-20T02:34:59;7.50;99.90
11284;DHT22;5698;47.332;11.180;2023-05-20T02:37:26;7.50;99.90
11284;DHT22;5698;47.332;11.180;2023-05-20T02:39:53;7.50;99.90
11284;DHT22;5698;47.332;11.180;2023-05-20T02:42:20;7.50;99.90
11284;DHT22;5698;47.332;11.180;2023-05-20T02:44:47;7.50;99.90
11284;DHT22;5698;47.332;11.180;2023-05-20T02:47:14;7.40;99.90
11284;DHT22;5698;47.332;11.180;2023-05-20T02:49:43;7.40;99.90
11284;DHT22;5698;47.332;11.180;2023-05-20T02:52:10;7.50;99.90
11284;DHT22;5698;47.332;11.180;2023-05-20T02:54:37;7.50;99.90
11284;DHT22;5698;47.332;11.180;2023-05-20T02:57:04;7.50;99.90
11284;DHT22;5698;47.332;11.180;2023-05-20T02:59:31;7.50;99.90
11284;DHT22;5698;47.332;11.180;2023-05-20T03:01:58;7.50;99.90
11284;DHT22;5698;47.332;11.180;2023-05-20T03:04:25;7.40;99.90
11284;DHT22;5698;47.332;11.180;2023-05-20T03:06:54;7.40;99.90
11284;DHT22;5698;47.332;11.180;2023-05-20T03:09:22;7.40;99.90
11284;DHT22;5698;47.332;11.180;2023-05-20T03:11:49;7.40;99.90
11284;DHT22;5698;47.332;11.180;2023-05-20T03:14:16;7.30;99.90
11284;DHT22;5698;47.332;11.180;2023-05-20T03:16:43;7.30;99.90
11284;DHT22;5698;47.332;11.180;2023-05-20T03:19:10;7.30;99.90
11284;DHT22;5698;47.332;11.180;2023-05-20T03:21:37;7.30;99.90
11284;DHT22;5698;47.332;11.180;2023-05-20T03:24:06;7.20;99.90
11284;DHT22;5698;47.332;11.180;2023-05-20T03:26:33;7.30;99.90
11284;DHT22;5698;47.332;11.180;2023-05-20T03:29:03;7.30;99.90
11284;DHT22;5698;47.332;11.180;2023-05-20T03:31:30;7.30;99.90
11284;DHT22;5698;47.332;11.180;2023-05-20T03:33:57;7.30;99.90
11284;DHT22;5698;47.332;11.180;2023-05-20T03:36:24;7.30;99.90
11284;DHT22;5698;47.332;11.180;2023-05-20T03:38:51;7.30;99.90
11284;DHT22;5698;47.332;11.180;2023-05-20T03:41:19;7.40;99.90
11284;DHT22;5698;47.332;11.180;2023-05-20T03:43:46;7.40;99.90
11284;DHT22;5698;47.332;11.180;2023-05-20T03:46:13;7.40;99.90
11284;DHT22;5698;47.332;11.180;2023-05-20T03:48:40;7.40;99.90
11284;DHT22;5698;47.332;11.180;2023-05-20T03:51:07;7.30;99.90
11284;DHT22;5698;47.332;11.180;2023-05-20T03:53:34;7.30;99.90
11284;DHT22;5698;47.332;11.180;2023-05-20T03:56:01;7.30;99.90
11284;DHT22;5698;47.332;11.180;2023-05-20T03:58:30;7.30;99.90
11284;DHT22;5698;47.332;11.180;2023-05-20T04:00:57;7.30;99.90
11284;DHT22;5698;47.332;11.180;2023-05-20T04:03:24;7.40;99.90
11284;DHT22;5698;47.332;11.180;2023-05-20T04:05:53;7.40;99.90
11284;DHT22;5698;47.332;11.180;2023-05-20T04:08:20;7.40;99.90
11284;DHT22;5698;47.332;11.180;2023-05-20T04:10:50;7.40;99.90
11284;DHT22;5698;47.332;11.180;2023-05-20T04:13:17;7.50;99.90
11284;DHT22;5698;47.332;11.180;2023-05-20T04:15:46;7.40;99.90
11284;DHT22;5698;47.332;11.180;2023-05-20T04:18:13;7.40;99.90
11284;DHT22;5698;47.332;11.180;2023-05-20T04:20:40;7.40;99.90
11284;DHT22;5698;47.332;11.180;2023-05-20T04:23:07;7.50;99.90
11284;DHT22;5698;47.332;11.180;2023-05-20T04:25:34;7.50;99.90
11284;DHT22;5698;47.332;11.180;2023-05-20T04:28:01;7.50;99.90
11284;DHT22;5698;47.332;11.180;2023-05-20T04:30:29;7.60;99.90
11284;DHT22;5698;47.332;11.180;2023-05-20T04:32:59;7.60;99.90
11284;DHT22;5698;47.332;11.180;2023-05-20T04:35:27;7.60;99.90
11284;DHT22;5698;47.332;11.180;2023-05-20T04:37:54;7.70;99.90
11284;DHT22;5698;47.332;11.180;2023-05-20T04:40:21;7.70;99.90
11284;DHT22;5698;47.332;11.180;2023-05-20T04:42:48;7.60;99.90
11284;DHT22;5698;47.332;11.180;2023-05-20T04:45:16;7.60;99.90
11284;DHT22;5698;47.332;11.180;2023-05-20T04:47:43;7.60;99.90
11284;DHT22;5698;47.332;11.180;2023-05-20T04:50:11;7.60;99.90
11284;DHT22;5698;47.332;11.180;2023-05-20T04:52:39;7.70;99.90
11284;DHT22;5698;47.332;11.180;2023-05-20T04:55:07;7.70;99.90
11284;DHT22;5698;47.332;11.180;2023-05-20T04:57:35;7.80;99.90
11284;DHT22;5698;47.332;11.180;2023-05-20T05:00:07;7.90;99.90
11284;DHT22;5698;47.332;11.180;2023-05-20T05:02:35;7.90;99.90
11284;DHT22;5698;47.332;11.180;2023-05-20T05:05:02;8.00;99.90
11284;DHT22;5698;47.332;11.180;2023-05-20T05:07:30;8.00;99.90
11284;DHT22;5698;47.332;11.180;2023-05-20T05:09:57;8.10;99.90
11284;DHT22;5698;47.332;11.180;2023-05-20T05:12:25;8.10;99.90
11284;DHT22;5698;47.332;11.180;2023-05-20T05:14:52;8.20;99.90
11284;DHT22;5698;47.332;11.180;2023-05-20T05:17:19;8.30;99.90
11284;DHT22;5698;47.332;11.180;2023-05-20T05:19:46;8.30;99.90
11284;DHT22;5698;47.332;11.180;2023-05-20T05:22:13;8.50;99.90
11284;DHT22;5698;47.332;11.180;2023-05-20T05:24:41;8.60;99.90
11284;DHT22;5698;47.332;11.180;2023-05-20T05:27:08;8.70;99.90
11284;DHT22;5698;47.332;11.180;2023-05-20T05:29:35;8.70;99.90
11284;DHT22;5698;47.332;11.180;2023-05-20T05:32:02;8.80;99.90
11284;DHT22;5698;47.332;11.180;2023-05-20T05:34:29;8.90;99.90
11284;DHT22;5698;47.332;11.180;2023-05-20T05:36:56;9.00;99.90
11284;DHT22;5698;47.332;11.180;2023-05-20T05:39:23;9.10;99.90
11284;DHT22;5698;47.332;11.180;2023-05-20T05:41:51;9.20;99.90
11284;DHT22;5698;47.332;11.180;2023-05-20T05:44:19;9.40;99.90
11284;DHT22;5698;47.332;11.180;2023-05-20T05:46:46;9.50;99.90
11284;DHT22;5698;47.332;11.180;2023-05-20T05:49:13;9.60;99.90
11284;DHT22;5698;47.332;11.180;2023-05-20T05:51:40;9.60;99.90
11284;DHT22;5698;47.332;11.180;2023-05-20T05:54:07;9.80;99.90
11284;DHT22;5698;47.332;11.180;2023-05-20T05:56:34;10.00;99.90
11284;DHT22;5698;47.332;11.180;2023-05-20T05:59:03;10.10;99.90
11284;DHT22;5698;47.332;11.180;2023-05-20T06:01:30;10.30;99.90
11284;DHT22;5698;47.332;11.180;2023-05-20T06:03:57;10.40;99.90
11284;DHT22;5698;47.332;11.180;2023-05-20T06:06:25;10.40;99.90
11284;DHT22;5698;47.332;11.180;2023-05-20T06:08:52;10.50;99.90
11284;DHT22;5698;47.332;11.180;2023-05-20T06:11:20;10.60;99.90
11284;DHT22;5698;47.332;11.180;2023-05-20T06:13:48;10.60;99.90
11284;DHT22;5698;47.332;11.180;2023-05-20T06:16:17;10.60;99.90
11284;DHT22;5698;47.332;11.180;2023-05-20T06:18:45;10.70;99.90
11284;DHT22;5698;47.332;11.180;2023-05-20T06:21:12;10.70;99.90
11284;DHT22;5698;47.332;11.180;2023-05-20T06:23:39;10.80;99.90
11284;DHT22;5698;47.332;11.180;2023-05-20T06:26:06;10.90;99.90
11284;DHT22;5698;47.332;11.180;2023-05-20T06:28:33;11.00;99.90
11284;DHT22;5698;47.332;11.180;2023-05-20T06:31:00;11.20;99.90
11284;DHT22;5698;47.332;11.180;2023-05-20T06:33:28;11.30;99.90
11284;DHT22;5698;47.332;11.180;2023-05-20T06:35:56;11.30;99.90
11284;DHT22;5698;47.332;11.180;2023-05-20T06:38:23;11.50;99.90
11284;DHT22;5698;47.332;11.180;2023-05-20T06:40:50;11.60;99.90
11284;DHT22;5698;47.332;11.180;2023-05-20T06:43:17;11.70;99.90
11284;DHT22;5698;47.332;11.180;2023-05-20T06:45:45;11.70;99.90
11284;DHT22;5698;47.332;11.180;2023-05-20T06:48:12;11.80;99.90
11284;DHT22;5698;47.332;11.180;2023-05-20T06:50:40;11.70;99.90
11284;DHT22;5698;47.332;11.180;2023-05-20T06:53:07;11.70;99.90
11284;DHT22;5698;47.332;11.180;2023-05-20T06:55:34;11.70;99.90
11284;DHT22;5698;47.332;11.180;2023-05-20T06:58:01;11.80;99.90
11284;DHT22;5698;47.332;11.180;2023-05-20T07:00:28;11.90;99.90
11284;DHT22;5698;47.332;11.180;2023-05-20T07:02:55;11.90;99.90
11284;DHT22;5698;47.332;11.180;2023-05-20T07:05:22;11.90;99.90
11284;DHT22;5698;47.332;11.180;2023-05-20T07:07:51;11.90;99.90
11284;DHT22;5698;47.332;11.180;2023-05-20T07:10:18;11.90;99.90
11284;DHT22;5698;47.332;11.180;2023-05-20T07:12:45;12.00;99.90
11284;DHT22;5698;47.332;11.180;2023-05-20T07:15:12;12.00;99.90
11284;DHT22;5698;47.332;11.180;2023-05-20T07:17:39;12.10;99.90
11284;DHT22;5698;47.332;11.180;2023-05-20T07:20:07;12.20;99.90
11284;DHT22;5698;47.332;11.180;2023-05-20T07:22:34;12.30;99.90
11284;DHT22;5698;47.332;11.180;2023-05-20T07:25:03;12.40;99.90
11284;DHT22;5698;47.332;11.180;2023-05-20T07:27:30;12.50;99.90
11284;DHT22;5698;47.332;11.180;2023-05-20T07:29:57;12.60;99.90
11284;DHT22;5698;47.332;11.180;2023-05-20T07:32:24;12.70;99.90
11284;DHT22;5698;47.332;11.180;2023-05-20T07:34:51;12.70;99.90
11284;DHT22;5698;47.332;11.180;2023-05-20T07:37:18;12.80;99.90
11284;DHT22;5698;47.332;11.180;2023-05-20T07:39:45;12.80;99.90
11284;DHT22;5698;47.332;11.180;2023-05-20T07:42:13;12.80;99.90
11284;DHT22;5698;47.332;11.180;2023-05-20T07:44:40;13.00;99.90
11284;DHT22;5698;47.332;11.180;2023-05-20T07:47:07;13.10;99.90
11284;DHT22;5698;47.332;11.180;2023-05-20T07:49:34;13.10;99.90
11284;DHT22;5698;47.332;11.180;2023-05-20T07:52:01;13.10;99.90
11284;DHT22;5698;47.332;11.180;2023-05-20T07:54:28;13.20;99.90
11284;DHT22;5698;47.332;11.180;2023-05-20T07:56:55;13.30;99.90
11284;DHT22;5698;47.332;11.180;2023-05-20T07:59:24;13.40;99.90
11284;DHT22;5698;47.332;11.180;2023-05-20T08:01:51;13.50;99.90
11284;DHT22;5698;47.332;11.180;2023-05-20T08:04:18;13.60;99.90
11284;DHT22;5698;47.332;11.180;2023-05-20T08:06:45;13.80;99.90
11284;DHT22;5698;47.332;11.180;2023-05-20T08:09:12;13.90;99.90
11284;DHT22;5698;47.332;11.180;2023-05-20T08:11:39;14.00;99.90
11284;DHT22;5698;47.332;11.180;2023-05-20T08:14:06;14.00;99.90
11284;DHT22;5698;47.332;11.180;2023-05-20T08:16:35;14.00;99.90
11284;DHT22;5698;47.332;11.180;2023-05-20T08:19:02;13.90;99.90
11284;DHT22;5698;47.332;11.180;2023-05-20T08:21:29;13.90;99.90
11284;DHT22;5698;47.332;11.180;2023-05-20T08:23:56;13.90;99.90
11284;DHT22;5698;47.332;11.180;2023-05-20T08:26:23;14.00;99.90
11284;DHT22;5698;47.332;11.180;2023-05-20T08:28:51;14.10;99.90
11284;DHT22;5698;47.332;11.180;2023-05-20T08:31:18;14.40;99.90
11284;DHT22;5698;47.332;11.180;2023-05-20T08:33:46;14.70;99.90
11284;DHT22;5698;47.332;11.180;2023-05-20T08:36:13;14.70;99.90
11284;DHT22;5698;47.332;11.180;2023-05-20T08:38:40;14.60;99.90
11284;DHT22;5698;47.332;11.180;2023-05-20T08:41:08;14.70;99.90
11284;DHT22;5698;47.332;11.180;2023-05-20T08:43:35;14.90;99.90
11284;DHT22;5698;47.332;11.180;2023-05-20T08:46:03;15.20;99.90
11284;DHT22;5698;47.332;11.180;2023-05-20T08:48:32;15.50;99.90
11284;DHT22;5698;47.332;11.180;2023-05-20T08:51:02;15.80;99.90
11284;DHT22;5698;47.332;11.180;2023-05-20T08:53:29;16.00;99.90
11284;DHT22;5698;47.332;11.180;2023-05-20T08:55:59;16.10;99.90
11284;DHT22;5698;47.332;11.180;2023-05-20T08:58:28;16.40;99.90
11284;DHT22;5698;47.332;11.180;2023-05-20T09:00:55;16.50;99.90
11284;DHT22;5698;47.332;11.180;2023-05-20T09:03:23;16.50;99.90
11284;DHT22;5698;47.332;11.180;2023-05-20T09:05:51;16.40;99.90
11284;DHT22;5698;47.332;11.180;2023-05-20T09:08:24;16.30;99.90
11284;DHT22;5698;47.332;11.180;2023-05-20T09:10:51;16.50;99.90
11284;DHT22;5698;47.332;11.180;2023-05-20T09:13:19;16.40;99.90
11284;DHT22;5698;47.332;11.180;2023-05-20T09:15:46;16.40;99.90
11284;DHT22;5698;47.332;11.180;2023-05-20T09:18:13;16.30;99.90
11284;DHT22;5698;47.332;11.180;2023-05-20T09:20:40;16.50;99.90
11284;DHT22;5698;47.332;11.180;2023-05-20T09:23:09;16.70;99.90
11284;DHT22;5698;47.332;11.180;2023-05-20T09:25:38;16.80;99.90
11284;DHT22;5698;47.332;11.180;2023-05-20T09:28:06;16.60;99.90
11284;DHT22;5698;47.332;11.180;2023-05-20T09:30:33;16.70;99.90
11284;DHT22;5698;47.332;11.180;2023-05-20T09:33:03;17.00;98.40
11284;DHT22;5698;47.332;11.180;2023-05-20T09:35:34;17.20;99.80
11284;DHT22;5698;47.332;11.180;2023-05-20T09:38:04;17.10;99.90
11284;DHT22;5698;47.332;11.180;2023-05-20T09:40:32;17.00;99.90
11284;DHT22;5698;47.332;11.180;2023-05-20T09:43:04;17.10;99.90
11284;DHT22;5698;47.332;11.180;2023-05-20T09:45:32;17.30;99.70
11284;DHT22;5698;47.332;11.180;2023-05-20T09:48:00;17.70;99.90
11284;DHT22;5698;47.332;11.180;2023-05-20T09:50:28;18.10;98.30
11284;DHT22;5698;47.332;11.180;2023-05-20T09:52:56;18.10;96.40
11284;DHT22;5698;47.332;11.180;2023-05-20T09:55:27;18.00;96.80
11284;DHT22;5698;47.332;11.180;2023-05-20T09:57:55;18.00;95.50
11284;DHT22;5698;47.332;11.180;2023-05-20T10:00:23;18.10;96.20
11284;DHT22;5698;47.332;11.180;2023-05-20T10:02:51;18.30;93.90
11284;DHT22;5698;47.332;11.180;2023-05-20T10:05:20;18.10;94.80
11284;DHT22;5698;47.332;11.180;2023-05-20T10:11:05;18.50;92.90
11284;DHT22;5698;47.332;11.180;2023-05-20T10:14:04;18.30;91.90
11284;DHT22;5698;47.332;11.180;2023-05-20T10:16:42;18.20;91.30
11284;DHT22;5698;47.332;11.180;2023-05-20T10:19:18;18.20;88.80
11284;DHT22;5698;47.332;11.180;2023-05-20T10:21:56;18.40;86.50
11284;DHT22;5698;47.332;11.180;2023-05-20T10:24:29;18.20;87.00
11284;DHT22;5698;47.332;11.180;2023-05-20T10:26:59;18.20;89.00
11284;DHT22;5698;47.332;11.180;2023-05-20T10:29:27;18.20;90.20
11284;DHT22;5698;47.332;11.180;2023-05-20T10:31:55;18.40;90.00
11284;DHT22;5698;47.332;11.180;2023-05-20T10:34:22;18.60;89.00
11284;DHT22;5698;47.332;11.180;2023-05-20T10:36:59;18.40;86.80
11284;DHT22;5698;47.332;11.180;2023-05-20T10:39:27;18.60;85.00
11284;DHT22;5698;47.332;11.180;2023-05-20T10:42:05;18.80;85.60
11284;DHT22;5698;47.332;11.180;2023-05-20T10:44:42;19.10;82.80
11284;DHT22;5698;47.332;11.180;2023-05-20T10:47:11;18.90;83.80
11284;DHT22;5698;47.332;11.180;2023-05-20T10:49:40;19.00;81.70
11284;DHT22;5698;47.332;11.180;2023-05-20T10:52:08;19.30;82.50
11284;DHT22;5698;47.332;11.180;2023-05-20T10:54:37;19.20;80.60
11284;DHT22;5698;47.332;11.180;2023-05-20T10:57:09;19.10;80.60
11284;DHT22;5698;47.332;11.180;2023-05-20T10:59:36;18.80;80.30
11284;DHT22;5698;47.332;11.180;2023-05-20T11:02:04;18.50;81.40
11284;DHT22;5698;47.332;11.180;2023-05-20T11:04:32;18.50;80.80
11284;DHT22;5698;47.332;11.180;2023-05-20T11:07:00;18.40;81.00
11284;DHT22;5698;47.332;11.180;2023-05-20T11:09:27;18.30;81.70
11284;DHT22;5698;47.332;11.180;2023-05-20T11:11:55;18.50;83.10
11284;DHT22;5698;47.332;11.180;2023-05-20T11:14:22;18.80;79.70
11284;DHT22;5698;47.332;11.180;2023-05-20T11:16:54;18.90;80.10
11284;DHT22;5698;47.332;11.180;2023-05-20T11:19:22;18.90;79.30
11284;DHT22;5698;47.332;11.180;2023-05-20T11:21:50;18.70;79.10
11284;DHT22;5698;47.332;11.180;2023-05-20T11:24:23;18.70;80.60
11284;DHT22;5698;47.332;11.180;2023-05-20T11:26:51;18.80;79.90
11284;DHT22;5698;47.332;11.180;2023-05-20T11:29:18;18.50;79.60
11284;DHT22;5698;47.332;11.180;2023-05-20T11:31:47;18.40;79.60
11284;DHT22;5698;47.332;11.180;2023-05-20T11:34:14;18.30;80.50
11284;DHT22;5698;47.332;11.180;2023-05-20T11:36:42;18.30;79.70
11284;DHT22;5698;47.332;11.180;2023-05-20T11:39:10;18.20;79.60
11284;DHT22;5698;47.332;11.180;2023-05-20T11:41:41;18.20;80.00
11284;DHT22;5698;47.332;11.180;2023-05-20T11:44:09;18.20;79.40
11284;DHT22;5698;47.332;11.180;2023-05-20T11:46:41;18.20;80.30
11284;DHT22;5698;47.332;11.180;2023-05-20T11:49:08;17.90;80.20
11284;DHT22;5698;47.332;11.180;2023-05-20T11:51:37;17.70;81.00
11284;DHT22;5698;47.332;11.180;2023-05-20T11:54:05;17.90;81.60
11284;DHT22;5698;47.332;11.180;2023-05-20T11:56:34;17.90;79.90
11284;DHT22;5698;47.332;11.180;2023-05-20T11:59:03;17.80;80.90
11284;DHT22;5698;47.332;11.180;2023-05-20T12:01:31;17.70;81.00
11284;DHT22;5698;47.332;11.180;2023-05-20T12:04:03;17.70;80.90
11284;DHT22;5698;47.332;11.180;2023-05-20T12:06:31;17.80;81.70
11284;DHT22;5698;47.332;11.180;2023-05-20T12:09:00;17.90;80.60
11284;DHT22;5698;47.332;11.180;2023-05-20T12:11:33;17.90;79.90
11284;DHT22;5698;47.332;11.180;2023-05-20T12:14:01;18.20;79.50
11284;DHT22;5698;47.332;11.180;2023-05-20T12:16:29;18.10;80.30
11284;DHT22;5698;47.332;11.180;2023-05-20T12:18:57;18.10;79.70
11284;DHT22;5698;47.332;11.180;2023-05-20T12:21:24;18.10;79.10
11284;DHT22;5698;47.332;11.180;2023-05-20T12:23:51;18.00;79.40
11284;DHT22;5698;47.332;11.180;2023-05-20T12:26:22;17.90;79.50
11284;DHT22;5698;47.332;11.180;2023-05-20T12:28:50;17.90;79.70
11284;DHT22;5698;47.332;11.180;2023-05-20T12:31:18;18.00;79.60
11284;DHT22;5698;47.332;11.180;2023-05-20T12:33:45;18.10;79.90
11284;DHT22;5698;47.332;11.180;2023-05-20T12:36:12;18.00;79.00
11284;DHT22;5698;47.332;11.180;2023-05-20T12:38:39;18.20;79.40
11284;DHT22;5698;47.332;11.180;2023-05-20T12:41:06;18.30;77.50
11284;DHT22;5698;47.332;11.180;2023-05-20T12:43:34;18.30;77.90
11284;DHT22;5698;47.332;11.180;2023-05-20T12:46:02;18.40;79.40
11284;DHT22;5698;47.332;11.180;2023-05-20T12:48:30;18.40;78.70
11284;DHT22;5698;47.332;11.180;2023-05-20T12:50:57;18.20;77.60
11284;DHT22;5698;47.332;11.180;2023-05-20T12:53:24;18.20;78.30
11284;DHT22;5698;47.332;11.180;2023-05-20T12:55:51;18.50;79.30
11284;DHT22;5698;47.332;11.180;2023-05-20T12:58:18;18.40;77.50
11284;DHT22;5698;47.332;11.180;2023-05-20T13:00:45;18.10;78.40
11284;DHT22;5698;47.332;11.180;2023-05-20T13:03:13;18.00;78.70
11284;DHT22;5698;47.332;11.180;2023-05-20T13:05:40;18.10;78.00
11284;DHT22;5698;47.332;11.180;2023-05-20T13:08:07;18.30;78.10
11284;DHT22;5698;47.332;11.180;2023-05-20T13:10:35;18.20;79.30
11284;DHT22;5698;47.332;11.180;2023-05-20T13:13:02;18.20;79.60
11284;DHT22;5698;47.332;11.180;2023-05-20T13:15:29;18.50;79.90
11284;DHT22;5698;47.332;11.180;2023-05-20T13:17:57;18.60;78.20
11284;DHT22;5698;47.332;11.180;2023-05-20T13:20:28;18.40;78.20
11284;DHT22;5698;47.332;11.180;2023-05-20T13:22:55;18.30;78.30
11284;DHT22;5698;47.332;11.180;2023-05-20T13:25:22;18.20;77.90
11284;DHT22;5698;47.332;11.180;2023-05-20T13:27:49;18.00;78.10
11284;DHT22;5698;47.332;11.180;2023-05-20T13:30:16;17.90;78.50
11284;DHT22;5698;47.332;11.180;2023-05-20T13:32:43;18.00;79.40
11284;DHT22;5698;47.332;11.180;2023-05-20T13:35:10;18.00;78.80
11284;DHT22;5698;47.332;11.180;2023-05-20T13:37:40;18.10;78.40
11284;DHT22;5698;47.332;11.180;2023-05-20T13:40:08;17.90;77.80
11284;DHT22;5698;47.332;11.180;2023-05-20T13:42:36;17.80;78.60
11284;DHT22;5698;47.332;11.180;2023-05-20T13:45:03;17.90;79.60
11284;DHT22;5698;47.332;11.180;2023-05-20T13:47:31;18.00;79.90
11284;DHT22;5698;47.332;11.180;2023-05-20T13:49:57;18.00;80.50
11284;DHT22;5698;47.332;11.180;2023-05-20T13:52:25;18.20;79.20
11284;DHT22;5698;47.332;11.180;2023-05-20T13:54:53;18.20;80.10
11284;DHT22;5698;47.332;11.180;2023-05-20T13:57:20;18.10;79.30
11284;DHT22;5698;47.332;11.180;2023-05-20T13:59:48;18.20;79.10
11284;DHT22;5698;47.332;11.180;2023-05-20T14:02:15;18.10;77.40
11284;DHT22;5698;47.332;11.180;2023-05-20T14:04:42;18.00;78.20
11284;DHT22;5698;47.332;11.180;2023-05-20T14:07:11;17.90;79.90
11284;DHT22;5698;47.332;11.180;2023-05-20T14:09:38;17.90;79.50
11284;DHT22;5698;47.332;11.180;2023-05-20T14:12:07;18.00;80.20
11284;DHT22;5698;47.332;11.180;2023-05-20T14:14:34;18.00;77.90
11284;DHT22;5698;47.332;11.180;2023-05-20T14:17:01;17.80;78.90
11284;DHT22;5698;47.332;11.180;2023-05-20T14:19:28;17.70;79.80
11284;DHT22;5698;47.332;11.180;2023-05-20T14:21:55;17.70;80.60
11284;DHT22;5698;47.332;11.180;2023-05-20T14:24:23;17.80;79.30
11284;DHT22;5698;47.332;11.180;2023-05-20T14:26:50;17.90;78.50
11284;DHT22;5698;47.332;11.180;2023-05-20T14:29:18;18.00;79.10
11284;DHT22;5698;47.332;11.180;2023-05-20T14:31:45;17.90;80.50
11284;DHT22;5698;47.332;11.180;2023-05-20T14:34:12;18.00;80.40
11284;DHT22;5698;47.332;11.180;2023-05-20T14:36:40;17.90;80.00
11284;DHT22;5698;47.332;11.180;2023-05-20T14:39:08;17.90;81.10
11284;DHT22;5698;47.332;11.180;2023-05-20T14:41:35;17.90;81.40
11284;DHT22;5698;47.332;11.180;2023-05-20T14:44:02;17.70;81.30
11284;DHT22;5698;47.332;11.180;2023-05-20T14:46:30;17.60;82.40
11284;DHT22;5698;47.332;11.180;2023-05-20T14:48:57;17.60;79.30
11284;DHT22;5698;47.332;11.180;2023-05-20T14:51:24;17.70;81.10
11284;DHT22;5698;47.332;11.180;2023-05-20T14:53:51;17.70;81.40
11284;DHT22;5698;47.332;11.180;2023-05-20T14:56:18;17.60;82.80
11284;DHT22;5698;47.332;11.180;2023-05-20T14:58:46;17.60;80.60
11284;DHT22;5698;47.332;11.180;2023-05-20T15:01:13;17.50;81.90
11284;DHT22;5698;47.332;11.180;2023-05-20T15:03:41;17.30;82.90
11284;DHT22;5698;47.332;11.180;2023-05-20T15:06:08;17.00;83.40
11284;DHT22;5698;47.332;11.180;2023-05-20T15:08:35;16.90;83.70
11284;DHT22;5698;47.332;11.180;2023-05-20T15:11:03;16.80;84.30
11284;DHT22;5698;47.332;11.180;2023-05-20T15:13:30;16.70;84.40
11284;DHT22;5698;47.332;11.180;2023-05-20T15:15:57;16.60;84.10
11284;DHT22;5698;47.332;11.180;2023-05-20T15:18:24;16.50;84.80
11284;DHT22;5698;47.332;11.180;2023-05-20T15:20:52;16.40;85.00
11284;DHT22;5698;47.332;11.180;2023-05-20T15:23:19;16.40;84.50
11284;DHT22;5698;47.332;11.180;2023-05-20T15:25:46;16.40;85.20
11284;DHT22;5698;47.332;11.180;2023-05-20T15:28:14;16.30;84.80
11284;DHT22;5698;47.332;11.180;2023-05-20T15:30:44;16.30;85.20
11284;DHT22;5698;47.332;11.180;2023-05-20T15:33:11;16.30;85.20
11284;DHT22;5698;47.332;11.180;2023-05-20T15:35:38;16.20;85.60
11284;DHT22;5698;47.332;11.180;2023-05-20T15:38:06;16.20;85.50
11284;DHT22;5698;47.332;11.180;2023-05-20T15:40:33;16.30;85.40
11284;DHT22;5698;47.332;11.180;2023-05-20T15:43:00;16.30;84.30
11284;DHT22;5698;47.332;11.180;2023-05-20T15:45:27;16.20;82.60